sensor_id;sensor_type;location;lat;lon;timestamp;pressure;altitude;pressure_sealevel;temperature;humidity
73860;BME280;62197;51.632;13.700;2023-08-08T00:00:34;99859.59;;;12.47;100.00
73860;BME280;62197;51.632;13.700;2023-08-08T00:02:59;99844.06;;;12.41;100.00
73860;BME280;62197;51.632;13.700;2023-08-08T00:05:25;99846.25;;;12.39;100.00
73860;BME280;62197;51.632;13.700;2023-08-08T00:07:50;99845.69;;;12.32;100.00
73860;BME280;62197;51.632;13.700;2023-08-08T00:10:15;99834.84;;;12.26;100.00
73860;BME280;62197;51.632;13.700;2023-08-08T00:12:41;99837.88;;;12.24;100.00
73860;BME280;62197;51.632;13.700;2023-08-08T00:15:06;99841.22;;;12.26;100.00
73860;BME280;62197;51.632;13.700;2023-08-08T00:17:32;99842.34;;;12.30;100.00
73860;BME280;62197;51.632;13.700;2023-08-08T00:19:57;99826.81;;;12.29;100.00
73860;BME280;62197;51.632;13.700;2023-08-08T00:22:22;99846.25;;;12.34;100.00
73860;BME280;62197;51.632;13.700;2023-08-08T00:24:48;99841.78;;;12.33;100.00
73860;BME280;62197;51.632;13.700;2023-08-08T00:27:13;99842.09;;;12.37;100.00
73860;BME280;62197;51.632;13.700;2023-08-08T00:29:38;99846.53;;;12.33;100.00
73860;BME280;62197;51.632;13.700;2023-08-08T00:32:04;99854.25;;;12.31;100.00
73860;BME280;62197;51.632;13.700;2023-08-08T00:34:29;99860.84;;;12.25;100.00
73860;BME280;62197;51.632;13.700;2023-08-08T00:36:54;99848.09;;;12.24;100.00
73860;BME280;62197;51.632;13.700;2023-08-08T00:39:20;99852.22;;;12.16;100.00
73860;BME280;62197;51.632;13.700;2023-08-08T00:41:45;99856.94;;;12.21;100.00
73860;BME280;62197;51.632;13.700;2023-08-08T00:44:10;99860.78;;;12.20;100.00
73860;BME280;62197;51.632;13.700;2023-08-08T00:46:36;99852.78;;;12.18;100.00
73860;BME280;62197;51.632;13.700;2023-08-08T00:49:01;99864.41;;;12.20;100.00
73860;BME280;62197;51.632;13.700;2023-08-08T00:51:26;99865.00;;;12.27;100.00
73860;BME280;62197;51.632;13.700;2023-08-08T00:53:52;99859.16;;;12.24;100.00
73860;BME280;62197;51.632;13.700;2023-08-08T00:56:18;99864.13;;;12.17;100.00
73860;BME280;62197;51.632;13.700;2023-08-08T00:58:44;99861.28;;;12.12;100.00
73860;BME280;62197;51.632;13.700;2023-08-08T01:01:15;99863.25;;;12.11;100.00
73860;BME280;62197;51.632;13.700;2023-08-08T01:03:40;99867.59;;;12.02;100.00
73860;BME280;62197;51.632;13.700;2023-08-08T01:06:13;99859.63;;;12.06;100.00
73860;BME280;62197;51.632;13.700;2023-08-08T01:08:46;99854.34;;;12.04;100.00
73860;BME280;62197;51.632;13.700;2023-08-08T01:11:14;99858.69;;;11.95;100.00
73860;BME280;62197;51.632;13.700;2023-08-08T01:13:41;99855.34;;;11.88;100.00
73860;BME280;62197;51.632;13.700;2023-08-08T01:16:07;99846.78;;;11.90;100.00
73860;BME280;62197;51.632;13.700;2023-08-08T01:18:33;99861.69;;;11.89;100.00
73860;BME280;62197;51.632;13.700;2023-08-08T01:21:00;99853.75;;;12.02;100.00
73860;BME280;62197;51.632;13.700;2023-08-08T01:23:43;99845.47;;;12.02;100.00
73860;BME280;62197;51.632;13.700;2023-08-08T01:26:10;99847.91;;;11.94;100.00
73860;BME280;62197;51.632;13.700;2023-08-08T01:28:37;99852.56;;;11.88;100.00
73860;BME280;62197;51.632;13.700;2023-08-08T01:31:02;99857.53;;;11.86;100.00
73860;BME280;62197;51.632;13.700;2023-08-08T01:33:28;99846.97;;;11.78;100.00
73860;BME280;62197;51.632;13.700;2023-08-08T01:35:58;99843.59;;;11.71;100.00
73860;BME280;62197;51.632;13.700;2023-08-08T01:38:28;99839.72;;;11.72;100.00
73860;BME280;62197;51.632;13.700;2023-08-08T01:40:56;99849.13;;;11.71;100.00
73860;BME280;62197;51.632;13.700;2023-08-08T01:43:22;99848.44;;;11.59;100.00
73860;BME280;62197;51.632;13.700;2023-08-08T01:45:49;99853.31;;;11.52;100.00
73860;BME280;62197;51.632;13.700;2023-08-08T01:48:15;99850.78;;;11.45;100.00
73860;BME280;62197;51.632;13.700;2023-08-08T01:50:41;99857.38;;;11.39;100.00
73860;BME280;62197;51.632;13.700;2023-08-08T01:53:06;99855.69;;;11.38;100.00
73860;BME280;62197;51.632;13.700;2023-08-08T01:55:31;99858.50;;;11.43;100.00
73860;BME280;62197;51.632;13.700;2023-08-08T01:57:57;99857.66;;;11.43;100.00
73860;BME280;62197;51.632;13.700;2023-08-08T02:00:23;99862.75;;;11.56;100.00
73860;BME280;62197;51.632;13.700;2023-08-08T02:02:48;99860.25;;;11.54;100.00
73860;BME280;62197;51.632;13.700;2023-08-08T02:05:14;99858.34;;;11.55;100.00
73860;BME280;62197;51.632;13.700;2023-08-08T02:07:39;99859.38;;;11.49;100.00
73860;BME280;62197;51.632;13.700;2023-08-08T02:10:05;99855.78;;;11.48;100.00
73860;BME280;62197;51.632;13.700;2023-08-08T02:12:30;99864.88;;;11.44;100.00
73860;BME280;62197;51.632;13.700;2023-08-08T02:14:57;99860.41;;;11.38;100.00
73860;BME280;62197;51.632;13.700;2023-08-08T02:17:22;99865.66;;;11.39;100.00
73860;BME280;62197;51.632;13.700;2023-08-08T02:19:47;99855.91;;;11.32;100.00
73860;BME280;62197;51.632;13.700;2023-08-08T02:22:13;99864.69;;;11.29;100.00
73860;BME280;62197;51.632;13.700;2023-08-08T02:24:38;99864.41;;;11.25;100.00
73860;BME280;62197;51.632;13.700;2023-08-08T02:27:03;99855.59;;;11.28;100.00
73860;BME280;62197;51.632;13.700;2023-08-08T02:29:29;99863.63;;;11.30;100.00
73860;BME280;62197;51.632;13.700;2023-08-08T02:31:55;99858.88;;;11.25;100.00
73860;BME280;62197;51.632;13.700;2023-08-08T02:34:20;99853.91;;;11.27;100.00
73860;BME280;62197;51.632;13.700;2023-08-08T02:36:45;99860.47;;;11.21;100.00
73860;BME280;62197;51.632;13.700;2023-08-08T02:39:11;99855.25;;;11.25;100.00
73860;BME280;62197;51.632;13.700;2023-08-08T02:41:36;99843.47;;;11.34;100.00
73860;BME280;62197;51.632;13.700;2023-08-08T02:44:02;99849.56;;;11.36;100.00
73860;BME280;62197;51.632;13.700;2023-08-08T02:46:27;99849.28;;;11.33;100.00
73860;BME280;62197;51.632;13.700;2023-08-08T02:48:52;99860.91;;;11.35;100.00
73860;BME280;62197;51.632;13.700;2023-08-08T02:51:18;99845.91;;;11.26;100.00
73860;BME280;62197;51.632;13.700;2023-08-08T02:53:43;99851.44;;;11.26;100.00
73860;BME280;62197;51.632;13.700;2023-08-08T02:56:08;99842.56;;;11.24;100.00
73860;BME280;62197;51.632;13.700;2023-08-08T02:58:34;99852.72;;;11.18;100.00
73860;BME280;62197;51.632;13.700;2023-08-08T03:00:59;99852.72;;;11.18;100.00
73860;BME280;62197;51.632;13.700;2023-08-08T03:03:24;99847.97;;;11.14;100.00
73860;BME280;62197;51.632;13.700;2023-08-08T03:05:50;99849.00;;;11.08;100.00
73860;BME280;62197;51.632;13.700;2023-08-08T03:08:15;99859.75;;;11.04;100.00
73860;BME280;62197;51.632;13.700;2023-08-08T03:10:40;99850.00;;;10.97;100.00
73860;BME280;62197;51.632;13.700;2023-08-08T03:13:06;99851.56;;;10.87;100.00
73860;BME280;62197;51.632;13.700;2023-08-08T03:15:31;99860.88;;;10.81;100.00
73860;BME280;62197;51.632;13.700;2023-08-08T03:17:57;99863.56;;;10.76;100.00
73860;BME280;62197;51.632;13.700;2023-08-08T03:20:22;99859.06;;;10.70;100.00
73860;BME280;62197;51.632;13.700;2023-08-08T03:22:47;99856.25;;;10.65;100.00
73860;BME280;62197;51.632;13.700;2023-08-08T03:25:13;99866.72;;;10.63;100.00
73860;BME280;62197;51.632;13.700;2023-08-08T03:27:38;99853.94;;;10.57;100.00
73860;BME280;62197;51.632;13.700;2023-08-08T03:30:03;99858.56;;;10.52;100.00
73860;BME280;62197;51.632;13.700;2023-08-08T03:32:29;99844.94;;;10.45;100.00
73860;BME280;62197;51.632;13.700;2023-08-08T03:34:54;99857.13;;;10.49;100.00
73860;BME280;62197;51.632;13.700;2023-08-08T03:37:19;99854.16;;;10.51;100.00
73860;BME280;62197;51.632;13.700;2023-08-08T03:39:44;99856.81;;;10.46;100.00
73860;BME280;62197;51.632;13.700;2023-08-08T03:42:10;99849.97;;;10.48;100.00
73860;BME280;62197;51.632;13.700;2023-08-08T03:44:35;99857.41;;;10.48;100.00
73860;BME280;62197;51.632;13.700;2023-08-08T03:47:00;99861.00;;;10.48;100.00
73860;BME280;62197;51.632;13.700;2023-08-08T03:49:26;99864.78;;;10.64;100.00
73860;BME280;62197;51.632;13.700;2023-08-08T03:51:51;99854.13;;;10.72;100.00
73860;BME280;62197;51.632;13.700;2023-08-08T03:54:17;99842.13;;;10.83;100.00
73860;BME280;62197;51.632;13.700;2023-08-08T03:56:42;99847.69;;;10.88;100.00
73860;BME280;62197;51.632;13.700;2023-08-08T03:59:08;99850.53;;;10.94;100.00
73860;BME280;62197;51.632;13.700;2023-08-08T04:01:33;99843.06;;;10.94;100.00
73860;BME280;62197;51.632;13.700;2023-08-08T04:03:58;99840.03;;;10.96;100.00
73860;BME280;62197;51.632;13.700;2023-08-08T04:06:24;99849.25;;;11.01;100.00
73860;BME280;62197;51.632;13.700;2023-08-08T04:08:49;99837.09;;;11.02;100.00
73860;BME280;62197;51.632;13.700;2023-08-08T04:11:15;99847.94;;;11.09;100.00
73860;BME280;62197;51.632;13.700;2023-08-08T04:13:40;99846.06;;;11.14;100.00
73860;BME280;62197;51.632;13.700;2023-08-08T04:16:05;99849.13;;;11.18;100.00
73860;BME280;62197;51.632;13.700;2023-08-08T04:18:30;99856.38;;;11.24;100.00
73860;BME280;62197;51.632;13.700;2023-08-08T04:20:56;99852.78;;;11.23;100.00
73860;BME280;62197;51.632;13.700;2023-08-08T04:23:21;99848.13;;;11.29;100.00
73860;BME280;62197;51.632;13.700;2023-08-08T04:25:50;99852.88;;;11.33;100.00
73860;BME280;62197;51.632;13.700;2023-08-08T04:28:15;99844.03;;;11.31;100.00
73860;BME280;62197;51.632;13.700;2023-08-08T04:30:41;99843.81;;;11.38;100.00
73860;BME280;62197;51.632;13.700;2023-08-08T04:33:06;99834.41;;;11.39;100.00
73860;BME280;62197;51.632;13.700;2023-08-08T04:35:31;99843.38;;;11.51;100.00
73860;BME280;62197;51.632;13.700;2023-08-08T04:37:57;99848.38;;;11.54;100.00
73860;BME280;62197;51.632;13.700;2023-08-08T04:40:22;99852.53;;;11.56;100.00
73860;BME280;62197;51.632;13.700;2023-08-08T04:42:47;99841.28;;;11.63;100.00
73860;BME280;62197;51.632;13.700;2023-08-08T04:45:13;99851.31;;;11.69;100.00
73860;BME280;62197;51.632;13.700;2023-08-08T04:47:39;99853.81;;;11.70;100.00
73860;BME280;62197;51.632;13.700;2023-08-08T04:50:04;99844.75;;;11.80;100.00
73860;BME280;62197;51.632;13.700;2023-08-08T04:52:30;99843.66;;;11.81;100.00
73860;BME280;62197;51.632;13.700;2023-08-08T04:54:55;99848.66;;;11.84;100.00
73860;BME280;62197;51.632;13.700;2023-08-08T04:57:20;99855.06;;;11.90;100.00
73860;BME280;62197;51.632;13.700;2023-08-08T04:59:46;99848.22;;;11.97;100.00
73860;BME280;62197;51.632;13.700;2023-08-08T05:02:11;99850.19;;;12.02;100.00
73860;BME280;62197;51.632;13.700;2023-08-08T05:04:36;99838.63;;;12.10;100.00
73860;BME280;62197;51.632;13.700;2023-08-08T05:07:02;99844.19;;;12.15;100.00
73860;BME280;62197;51.632;13.700;2023-08-08T05:09:27;99841.50;;;12.25;100.00
73860;BME280;62197;51.632;13.700;2023-08-08T05:11:52;99844.31;;;12.35;100.00
73860;BME280;62197;51.632;13.700;2023-08-08T05:14:18;99848.53;;;12.47;100.00
73860;BME280;62197;51.632;13.700;2023-08-08T05:16:43;99832.50;;;12.54;100.00
73860;BME280;62197;51.632;13.700;2023-08-08T05:19:09;99823.44;;;12.69;100.00
73860;BME280;62197;51.632;13.700;2023-08-08T05:21:34;99820.44;;;12.81;100.00
73860;BME280;62197;51.632;13.700;2023-08-08T05:23:59;99829.06;;;12.94;100.00
73860;BME280;62197;51.632;13.700;2023-08-08T05:26:25;99816.41;;;13.08;100.00
73860;BME280;62197;51.632;13.700;2023-08-08T05:28:50;99829.44;;;13.18;100.00
73860;BME280;62197;51.632;13.700;2023-08-08T05:31:16;99813.66;;;13.23;100.00
73860;BME280;62197;51.632;13.700;2023-08-08T05:33:41;99824.47;;;13.20;100.00
73860;BME280;62197;51.632;13.700;2023-08-08T05:36:06;99818.63;;;13.21;100.00
73860;BME280;62197;51.632;13.700;2023-08-08T05:38:32;99831.66;;;13.21;100.00
73860;BME280;62197;51.632;13.700;2023-08-08T05:40:57;99832.13;;;13.03;100.00
73860;BME280;62197;51.632;13.700;2023-08-08T05:43:23;99829.06;;;12.94;100.00
73860;BME280;62197;51.632;13.700;2023-08-08T05:45:48;99833.75;;;12.89;100.00
73860;BME280;62197;51.632;13.700;2023-08-08T05:48:13;99824.09;;;12.96;100.00
73860;BME280;62197;51.632;13.700;2023-08-08T05:50:40;99839.16;;;13.25;100.00
73860;BME280;62197;51.632;13.700;2023-08-08T05:53:05;99829.47;;;13.43;100.00
73860;BME280;62197;51.632;13.700;2023-08-08T05:55:30;99832.81;;;13.75;100.00
73860;BME280;62197;51.632;13.700;2023-08-08T05:57:56;99816.72;;;13.87;100.00
73860;BME280;62197;51.632;13.700;2023-08-08T06:00:21;99821.97;;;13.89;100.00
73860;BME280;62197;51.632;13.700;2023-08-08T06:02:46;99828.91;;;13.86;100.00
73860;BME280;62197;51.632;13.700;2023-08-08T06:05:12;99820.59;;;13.71;100.00
73860;BME280;62197;51.632;13.700;2023-08-08T06:07:37;99830.00;;;14.05;100.00
73860;BME280;62197;51.632;13.700;2023-08-08T06:10:03;99814.44;;;14.24;100.00
73860;BME280;62197;51.632;13.700;2023-08-08T06:12:28;99816.88;;;14.46;100.00
73860;BME280;62197;51.632;13.700;2023-08-08T06:14:54;99813.25;;;14.61;100.00
73860;BME280;62197;51.632;13.700;2023-08-08T06:17:19;99822.19;;;14.42;100.00
73860;BME280;62197;51.632;13.700;2023-08-08T06:19:45;99818.31;;;14.38;100.00
73860;BME280;62197;51.632;13.700;2023-08-08T06:22:10;99809.66;;;14.55;100.00
73860;BME280;62197;51.632;13.700;2023-08-08T06:24:35;99807.75;;;14.40;100.00
73860;BME280;62197;51.632;13.700;2023-08-08T06:27:01;99802.97;;;14.56;100.00
73860;BME280;62197;51.632;13.700;2023-08-08T06:29:26;99805.50;;;14.53;100.00
73860;BME280;62197;51.632;13.700;2023-08-08T06:31:52;99813.84;;;14.48;100.00
73860;BME280;62197;51.632;13.700;2023-08-08T06:34:18;99814.34;;;14.60;100.00
73860;BME280;62197;51.632;13.700;2023-08-08T06:36:43;99823.56;;;14.45;100.00
73860;BME280;62197;51.632;13.700;2023-08-08T06:39:08;99816.06;;;14.40;100.00
73860;BME280;62197;51.632;13.700;2023-08-08T06:41:34;99816.09;;;14.25;100.00
73860;BME280;62197;51.632;13.700;2023-08-08T06:43:59;99820.56;;;14.26;100.00
73860;BME280;62197;51.632;13.700;2023-08-08T06:46:25;99818.06;;;14.10;100.00
73860;BME280;62197;51.632;13.700;2023-08-08T06:48:50;99821.97;;;14.09;100.00
73860;BME280;62197;51.632;13.700;2023-08-08T06:51:18;99817.22;;;14.19;100.00
73860;BME280;62197;51.632;13.700;2023-08-08T06:53:43;99828.31;;;14.19;100.00
73860;BME280;62197;51.632;13.700;2023-08-08T06:56:09;99818.34;;;14.28;100.00
73860;BME280;62197;51.632;13.700;2023-08-08T06:58:34;99827.75;;;14.37;100.00
73860;BME280;62197;51.632;13.700;2023-08-08T07:00:59;99824.44;;;14.35;100.00
73860;BME280;62197;51.632;13.700;2023-08-08T07:03:24;99808.59;;;14.26;100.00
73860;BME280;62197;51.632;13.700;2023-08-08T07:05:50;99816.09;;;14.25;100.00
73860;BME280;62197;51.632;13.700;2023-08-08T07:08:18;99816.09;;;14.35;100.00
73860;BME280;62197;51.632;13.700;2023-08-08T07:10:44;99824.38;;;14.51;100.00
73860;BME280;62197;51.632;13.700;2023-08-08T07:13:09;99810.25;;;14.47;100.00
73860;BME280;62197;51.632;13.700;2023-08-08T07:15:34;99795.56;;;14.41;100.00
73860;BME280;62197;51.632;13.700;2023-08-08T07:18:00;99812.19;;;14.52;100.00
73860;BME280;62197;51.632;13.700;2023-08-08T07:20:25;99812.16;;;14.57;100.00
73860;BME280;62197;51.632;13.700;2023-08-08T07:22:50;99802.66;;;14.68;100.00
73860;BME280;62197;51.632;13.700;2023-08-08T07:25:16;99803.22;;;14.65;100.00
73860;BME280;62197;51.632;13.700;2023-08-08T07:27:41;99812.13;;;14.67;100.00
73860;BME280;62197;51.632;13.700;2023-08-08T07:30:07;99823.78;;;14.64;100.00
73860;BME280;62197;51.632;13.700;2023-08-08T07:32:33;99817.66;;;14.67;100.00
73860;BME280;62197;51.632;13.700;2023-08-08T07:34:59;99810.06;;;14.87;100.00
73860;BME280;62197;51.632;13.700;2023-08-08T07:37:26;99814.88;;;14.62;100.00
73860;BME280;62197;51.632;13.700;2023-08-08T07:39:52;99804.78;;;14.86;100.00
73860;BME280;62197;51.632;13.700;2023-08-08T07:42:17;99816.78;;;14.71;100.00
73860;BME280;62197;51.632;13.700;2023-08-08T07:44:42;99821.31;;;14.52;100.00
73860;BME280;62197;51.632;13.700;2023-08-08T07:47:08;99812.66;;;14.64;100.00
73860;BME280;62197;51.632;13.700;2023-08-08T07:49:33;99819.25;;;14.83;100.00
73860;BME280;62197;51.632;13.700;2023-08-08T07:51:58;99823.66;;;14.89;100.00
73860;BME280;62197;51.632;13.700;2023-08-08T07:54:24;99807.41;;;14.62;100.00
73860;BME280;62197;51.632;13.700;2023-08-08T07:56:49;99810.41;;;14.76;100.00
73860;BME280;62197;51.632;13.700;2023-08-08T07:59:15;99808.75;;;14.75;100.00
73860;BME280;62197;51.632;13.700;2023-08-08T08:01:41;99810.97;;;14.68;100.00
73860;BME280;62197;51.632;13.700;2023-08-08T08:04:06;99814.22;;;14.85;100.00
73860;BME280;62197;51.632;13.700;2023-08-08T08:06:31;99803.13;;;14.85;100.00
73860;BME280;62197;51.632;13.700;2023-08-08T08:08:57;99810.59;;;14.89;100.00
73860;BME280;62197;51.632;13.700;2023-08-08T08:11:22;99807.53;;;14.91;100.00
73860;BME280;62197;51.632;13.700;2023-08-08T08:13:47;99804.72;;;15.01;100.00
73860;BME280;62197;51.632;13.700;2023-08-08T08:16:13;99812.19;;;15.05;100.00
73860;BME280;62197;51.632;13.700;2023-08-08T08:18:38;99810.88;;;14.93;100.00
73860;BME280;62197;51.632;13.700;2023-08-08T08:21:04;99820.28;;;14.97;100.00
73860;BME280;62197;51.632;13.700;2023-08-08T08:23:30;99810.25;;;15.06;100.00
73860;BME280;62197;51.632;13.700;2023-08-08T08:25:56;99798.75;;;15.22;100.00
73860;BME280;62197;51.632;13.700;2023-08-08T08:28:22;99804.16;;;15.48;100.00
73860;BME280;62197;51.632;13.700;2023-08-08T08:30:47;99804.63;;;15.60;100.00
73860;BME280;62197;51.632;13.700;2023-08-08T08:33:12;99803.19;;;15.62;100.00
73860;BME280;62197;51.632;13.700;2023-08-08T08:35:38;99801.94;;;15.78;100.00
73860;BME280;62197;51.632;13.700;2023-08-08T08:38:03;99781.75;;;15.96;100.00
73860;BME280;62197;51.632;13.700;2023-08-08T08:40:35;99798.75;;;15.95;100.00
73860;BME280;62197;51.632;13.700;2023-08-08T08:43:01;99799.75;;;16.33;100.00
73860;BME280;62197;51.632;13.700;2023-08-08T08:45:28;99794.97;;;16.62;100.00
73860;BME280;62197;51.632;13.700;2023-08-08T08:47:55;99793.25;;;16.66;100.00
73860;BME280;62197;51.632;13.700;2023-08-08T08:50:21;99791.56;;;16.17;100.00
73860;BME280;62197;51.632;13.700;2023-08-08T08:52:47;99795.03;;;16.28;100.00
73860;BME280;62197;51.632;13.700;2023-08-08T08:55:13;99793.84;;;16.10;100.00
73860;BME280;62197;51.632;13.700;2023-08-08T08:57:38;99809.06;;;15.89;100.00
73860;BME280;62197;51.632;13.700;2023-08-08T09:00:05;99794.28;;;16.22;100.00
73860;BME280;62197;51.632;13.700;2023-08-08T09:02:31;99796.63;;;16.63;100.00
73860;BME280;62197;51.632;13.700;2023-08-08T09:04:57;99810.00;;;16.61;100.00
73860;BME280;62197;51.632;13.700;2023-08-08T09:07:24;99783.13;;;16.22;100.00
73860;BME280;62197;51.632;13.700;2023-08-08T09:09:52;99791.19;;;16.48;100.00
73860;BME280;62197;51.632;13.700;2023-08-08T09:12:18;99790.59;;;16.56;100.00
73860;BME280;62197;51.632;13.700;2023-08-08T09:14:44;99788.19;;;17.10;100.00
73860;BME280;62197;51.632;13.700;2023-08-08T09:17:12;99799.41;;;17.42;100.00
73860;BME280;62197;51.632;13.700;2023-08-08T09:19:38;99795.09;;;18.00;100.00
73860;BME280;62197;51.632;13.700;2023-08-08T09:22:04;99780.03;;;18.01;100.00
73860;BME280;62197;51.632;13.700;2023-08-08T09:24:29;99785.53;;;17.74;100.00
73860;BME280;62197;51.632;13.700;2023-08-08T09:26:55;99773.56;;;17.87;100.00
73860;BME280;62197;51.632;13.700;2023-08-08T09:29:20;99776.50;;;17.96;100.00
73860;BME280;62197;51.632;13.700;2023-08-08T09:31:46;99788.47;;;17.96;100.00
73860;BME280;62197;51.632;13.700;2023-08-08T09:34:12;99791.03;;;18.12;100.00
73860;BME280;62197;51.632;13.700;2023-08-08T09:36:38;99788.63;;;18.19;100.00
73860;BME280;62197;51.632;13.700;2023-08-08T09:39:03;99783.91;;;17.55;100.00
73860;BME280;62197;51.632;13.700;2023-08-08T09:41:30;99759.53;;;17.23;100.00
73860;BME280;62197;51.632;13.700;2023-08-08T09:43:55;99782.44;;;17.01;100.00
73860;BME280;62197;51.632;13.700;2023-08-08T09:46:22;99787.66;;;17.08;100.00
73860;BME280;62197;51.632;13.700;2023-08-08T09:48:48;99780.88;;;17.14;100.00
73860;BME280;62197;51.632;13.700;2023-08-08T09:51:14;99790.78;;;16.83;100.00
73860;BME280;62197;51.632;13.700;2023-08-08T09:53:40;99795.34;;;17.16;100.00
73860;BME280;62197;51.632;13.700;2023-08-08T09:56:06;99788.13;;;17.52;100.00
73860;BME280;62197;51.632;13.700;2023-08-08T09:58:32;99779.69;;;17.57;100.00
73860;BME280;62197;51.632;13.700;2023-08-08T10:00:58;99780.25;;;17.17;100.00
73860;BME280;62197;51.632;13.700;2023-08-08T10:03:24;99775.22;;;17.00;100.00
73860;BME280;62197;51.632;13.700;2023-08-08T10:05:49;99774.59;;;16.85;100.00
73860;BME280;62197;51.632;13.700;2023-08-08T10:08:15;99782.63;;;16.68;100.00
73860;BME280;62197;51.632;13.700;2023-08-08T10:10:43;99777.66;;;16.65;100.00
73860;BME280;62197;51.632;13.700;2023-08-08T10:13:09;99776.13;;;16.54;100.00
73860;BME280;62197;51.632;13.700;2023-08-08T10:15:39;99771.00;;;16.61;100.00
73860;BME280;62197;51.632;13.700;2023-08-08T10:18:04;99763.34;;;16.53;100.00
73860;BME280;62197;51.632;13.700;2023-08-08T10:20:31;99748.97;;;16.64;100.00
73860;BME280;62197;51.632;13.700;2023-08-08T10:22:59;99760.06;;;17.25;100.00
73860;BME280;62197;51.632;13.700;2023-08-08T10:25:28;99771.09;;;17.17;100.00
73860;BME280;62197;51.632;13.700;2023-08-08T10:30:29;99764.75;;;17.48;100.00
73860;BME280;62197;51.632;13.700;2023-08-08T10:32:57;99754.72;;;17.79;100.00
73860;BME280;62197;51.632;13.700;2023-08-08T10:35:35;99769.31;;;18.36;100.00
73860;BME280;62197;51.632;13.700;2023-08-08T10:38:08;99768.75;;;18.07;100.00
73860;BME280;62197;51.632;13.700;2023-08-08T10:40:34;99759.19;;;18.67;100.00
73860;BME280;62197;51.632;13.700;2023-08-08T10:43:10;99752.06;;;18.61;100.00
73860;BME280;62197;51.632;13.700;2023-08-08T10:45:36;99762.38;;;18.33;100.00
73860;BME280;62197;51.632;13.700;2023-08-08T10:48:07;99753.16;;;18.19;100.00
73860;BME280;62197;51.632;13.700;2023-08-08T10:50:38;99748.56;;;17.82;100.00
73860;BME280;62197;51.632;13.700;2023-08-08T10:53:08;99750.41;;;17.87;100.00
73860;BME280;62197;51.632;13.700;2023-08-08T10:55:35;99722.34;;;17.46;100.00
73860;BME280;62197;51.632;13.700;2023-08-08T10:58:06;99750.66;;;18.04;100.00
73860;BME280;62197;51.632;13.700;2023-08-08T11:00:35;99757.75;;;18.56;100.00
73860;BME280;62197;51.632;13.700;2023-08-08T11:03:00;99737.88;;;18.57;100.00
73860;BME280;62197;51.632;13.700;2023-08-08T11:05:31;99746.38;;;18.66;100.00
73860;BME280;62197;51.632;13.700;2023-08-08T11:07:57;99714.34;;;18.72;100.00
73860;BME280;62197;51.632;13.700;2023-08-08T11:10:22;99727.31;;;19.53;100.00
73860;BME280;62197;51.632;13.700;2023-08-08T11:12:57;99739.75;;;20.22;100.00
73860;BME280;62197;51.632;13.700;2023-08-08T11:15:23;99722.50;;;20.93;100.00
73860;BME280;62197;51.632;13.700;2023-08-08T11:17:49;99730.84;;;20.67;100.00
73860;BME280;62197;51.632;13.700;2023-08-08T11:20:14;99731.69;;;20.59;100.00
73860;BME280;62197;51.632;13.700;2023-08-08T11:22:39;99724.81;;;20.91;100.00
73860;BME280;62197;51.632;13.700;2023-08-08T11:25:05;99703.94;;;20.58;100.00
73860;BME280;62197;51.632;13.700;2023-08-08T11:27:33;99730.22;;;22.07;100.00
73860;BME280;62197;51.632;13.700;2023-08-08T11:29:58;99713.97;;;21.15;100.00
73860;BME280;62197;51.632;13.700;2023-08-08T11:32:25;99707.75;;;20.53;100.00
73860;BME280;62197;51.632;13.700;2023-08-08T11:34:53;99707.97;;;21.77;100.00
73860;BME280;62197;51.632;13.700;2023-08-08T11:37:19;99704.06;;;22.53;98.38
73860;BME280;62197;51.632;13.700;2023-08-08T11:39:44;99709.78;;;21.98;100.00
73860;BME280;62197;51.632;13.700;2023-08-08T11:42:10;99683.19;;;21.79;96.16
73860;BME280;62197;51.632;13.700;2023-08-08T11:44:36;99697.94;;;20.34;100.00
73860;BME280;62197;51.632;13.700;2023-08-08T11:47:02;99693.47;;;19.94;100.00
73860;BME280;62197;51.632;13.700;2023-08-08T11:49:27;99678.63;;;19.40;100.00
73860;BME280;62197;51.632;13.700;2023-08-08T11:51:56;99687.88;;;19.94;100.00
73860;BME280;62197;51.632;13.700;2023-08-08T11:54:21;99687.22;;;19.44;100.00
73860;BME280;62197;51.632;13.700;2023-08-08T11:56:46;99680.13;;;19.24;100.00
73860;BME280;62197;51.632;13.700;2023-08-08T11:59:12;99691.53;;;19.72;100.00
73860;BME280;62197;51.632;13.700;2023-08-08T12:01:37;99669.44;;;20.40;100.00
73860;BME280;62197;51.632;13.700;2023-08-08T12:04:07;99684.66;;;19.34;100.00
73860;BME280;62197;51.632;13.700;2023-08-08T12:06:33;99674.41;;;19.51;100.00
73860;BME280;62197;51.632;13.700;2023-08-08T12:09:02;99675.34;;;20.00;100.00
73860;BME280;62197;51.632;13.700;2023-08-08T12:11:28;99680.50;;;19.75;100.00
73860;BME280;62197;51.632;13.700;2023-08-08T12:13:59;99683.56;;;21.43;97.35
73860;BME280;62197;51.632;13.700;2023-08-08T12:16:27;99682.28;;;21.40;95.54
73860;BME280;62197;51.632;13.700;2023-08-08T12:18:53;99694.34;;;23.09;88.56
73860;BME280;62197;51.632;13.700;2023-08-08T12:21:18;99685.53;;;22.90;83.28
73860;BME280;62197;51.632;13.700;2023-08-08T12:23:44;99703.66;;;22.42;84.23
73860;BME280;62197;51.632;13.700;2023-08-08T12:26:09;99685.22;;;22.62;84.57
73860;BME280;62197;51.632;13.700;2023-08-08T12:28:34;99650.63;;;22.82;81.38
73860;BME280;62197;51.632;13.700;2023-08-08T12:31:00;99679.75;;;23.27;83.83
73860;BME280;62197;51.632;13.700;2023-08-08T12:33:25;99669.09;;;22.71;84.74
73860;BME280;62197;51.632;13.700;2023-08-08T12:35:51;99672.00;;;23.78;75.04